Time;durP1;ratioP1;P1;durP2;ratioP2;P2;SDS_P1;SDS_P2;PMS_P1;PMS_P2;Temp;Humidity;BMP_temperature;BMP_pressure;BME280_temperature;BME280_humidity;BME280_pressure;Samples;Min_cycle;Max_cycle;Signal;HPM_P1;HPM_P2
2021/08/05 00:02:17;;;;;;;14.35;8.60;;;589.30;1945.60;;;;;;5141709;27;20019;-78
2021/08/05 00:04:42;;;;;;;11.38;7.22;;;589.20;1945.60;;;;;;5146551;27;20042;-76
2021/08/05 00:07:11;;;;;;;15.52;8.10;;;589.20;1945.60;;;;;;5147070;27;20023;-75
2021/08/05 00:09:38;;;;;;;18.27;8.75;;;589.10;1971.20;;;;;;5151923;27;20460;-76
2021/08/05 00:12:05;;;;;;;14.27;7.97;;;589.20;1945.60;;;;;;5121887;27;20027;-76
2021/08/05 00:14:31;;;;;;;12.88;7.47;;;589.60;1920.00;;;;;;5143975;27;20499;-76
2021/08/05 00:16:57;;;;;;;10.00;6.75;;;589.30;1945.60;;;;;;5140019;27;20030;-76
2021/08/05 00:19:23;;;;;;;12.88;7.38;;;589.30;1945.60;;;;;;5123975;27;20056;-76
2021/08/05 00:21:49;;;;;;;12.82;6.53;;;589.00;1971.20;;;;;;5141621;27;20015;-76
2021/08/05 00:24:14;;;;;;;12.20;7.47;;;589.40;1945.60;;;;;;5144034;27;20050;-76
2021/08/05 00:26:40;;;;;;;10.68;6.75;;;589.50;1920.00;;;;;;5152674;27;20019;-76
2021/08/05 00:29:06;;;;;;;16.10;7.45;;;588.90;1971.20;;;;;;5156571;27;20018;-75
2021/08/05 00:31:31;;;;;;;14.25;7.60;;;589.10;1945.60;;;;;;5156162;27;20106;-76
2021/08/05 00:33:57;;;;;;;13.07;7.35;;;589.10;1945.60;;;;;;5156389;27;20054;-76
2021/08/05 00:36:23;;;;;;;11.35;6.40;;;589.10;1971.20;;;;;;5137933;27;20500;-76
2021/08/05 00:38:48;;;;;;;10.48;6.85;;;589.00;1945.60;;;;;;5172386;27;20014;-76
2021/08/05 00:41:15;;;;;;;11.50;7.18;;;564.10;1996.80;;;;;;5137435;27;20507;-75
2021/08/05 00:43:41;;;;;;;12.88;6.95;;;588.80;1996.80;;;;;;5149017;27;20111;-76
2021/08/05 00:46:07;;;;;;;13.15;7.20;;;588.90;1945.60;;;;;;5136862;27;20118;-76
2021/08/05 00:48:33;;;;;;;12.60;6.22;;;564.00;1996.80;;;;;;5153046;27;20071;-76
2021/08/05 00:50:59;;;;;;;9.05;6.05;;;588.80;1971.20;;;;;;5155727;27;20468;-77
2021/08/05 00:53:26;;;;;;;8.65;5.82;;;588.80;1971.20;;;;;;5155961;27;20030;-76
2021/08/05 00:55:51;;;;;;;14.88;6.72;;;588.80;1971.20;;;;;;5155655;27;20006;-76
2021/08/05 00:58:17;;;;;;;15.70;6.57;;;564.10;1996.80;;;;;;5155759;27;20063;-77
2021/08/05 01:00:49;;;;;;;16.33;6.78;;;588.80;1996.80;;;;;;5142191;27;20072;-75
2021/08/05 01:03:25;;;;;;;13.95;7.60;;;564.10;1971.20;;;;;;5137846;27;20006;-75
2021/08/05 01:06:08;;;;;;;11.95;6.88;;;564.00;2022.40;;;;;;5140611;27;20101;-75
2021/08/05 01:08:36;;;;;;;13.13;7.18;;;564.10;2022.40;;;;;;5133122;27;20117;-75
2021/08/05 01:11:26;;;;;;;11.55;6.60;;;588.80;1996.80;;;;;;5155497;27;20015;-76
2021/08/05 01:13:58;;;;;;;10.18;7.13;;;564.00;2022.40;;;;;;5155030;27;20031;-75
2021/08/05 01:16:29;;;;;;;12.75;7.32;;;588.80;2022.40;;;;;;5155147;27;20026;-76
2021/08/05 01:19:25;;;;;;;13.52;7.38;;;564.00;2022.40;;;;;;5152884;27;20019;-76
2021/08/05 01:22:06;;;;;;;17.58;7.85;;;564.10;2022.40;;;;;;5154705;27;20010;-76
2021/08/05 01:24:36;;;;;;;15.75;8.35;;;588.80;1996.80;;;;;;5155047;27;20033;-75
2021/08/05 01:27:03;;;;;;;13.77;8.88;;;564.10;2022.40;;;;;;5155175;27;20015;-76
2021/08/05 01:29:33;;;;;;;14.00;8.60;;;564.00;2022.40;;;;;;5154995;27;20065;-76
2021/08/05 01:32:01;;;;;;;14.32;8.95;;;563.90;2048.00;;;;;;5154997;27;20014;-76
2021/08/05 01:34:27;;;;;;;17.00;9.35;;;563.50;2099.20;;;;;;5154722;27;20502;-76
2021/08/05 01:36:54;;;;;;;16.30;9.75;;;564.00;2022.40;;;;;;5135615;27;20014;-75
2021/08/05 01:39:20;;;;;;;16.13;9.38;;;564.00;2022.40;;;;;;5140125;27;20079;-76
2021/08/05 01:41:48;;;;;;;21.05;10.13;;;588.90;1996.80;;;;;;5136304;27;20095;-76
2021/08/05 01:44:14;;;;;;;17.70;9.30;;;589.00;1971.20;;;;;;5152070;27;20046;-76
2021/08/05 01:46:42;;;;;;;19.90;10.63;;;564.10;1996.80;;;;;;5154734;27;20023;-76
2021/08/05 01:49:07;;;;;;;17.38;10.15;;;588.80;1996.80;;;;;;5154833;27;20475;-76
2021/08/05 01:51:34;;;;;;;13.52;9.48;;;564.00;2022.40;;;;;;5154656;27;20023;-76
2021/08/05 01:54:01;;;;;;;17.83;10.07;;;563.90;2022.40;;;;;;5154648;27;20076;-76
2021/08/05 01:56:27;;;;;;;17.17;9.68;;;563.80;2048.00;;;;;;5154670;27;20124;-76
2021/08/05 01:58:57;;;;;;;20.25;9.30;;;563.70;2048.00;;;;;;5154397;27;20018;-77
2021/08/05 02:01:23;;;;;;;15.10;9.68;;;563.70;2048.00;;;;;;5135637;27;20113;-76
2021/08/05 02:04:22;;;;;;;16.23;9.57;;;563.70;2048.00;;;;;;5154440;27;20434;-78
2021/08/05 02:06:59;;;;;;;16.98;8.95;;;563.60;2048.00;;;;;;5153646;27;20026;-76
2021/08/05 02:09:31;;;;;;;13.68;9.20;;;563.70;2048.00;;;;;;5153038;27;20384;-76
2021/08/05 02:11:59;;;;;;;20.25;8.85;;;563.60;2048.00;;;;;;5151766;27;20483;-76
2021/08/05 02:14:28;;;;;;;12.30;8.85;;;563.60;2048.00;;;;;;5154128;27;20127;-76
2021/08/05 02:16:54;;;;;;;14.13;8.43;;;563.60;2048.00;;;;;;5154243;27;20015;-76
2021/08/05 02:19:21;;;;;;;15.13;8.52;;;563.50;2073.60;;;;;;5154285;27;20023;-75
2021/08/05 02:21:48;;;;;;;12.95;7.80;;;563.20;2099.20;;;;;;5154144;27;20010;-76
2021/08/05 02:24:17;;;;;;;14.15;8.32;;;563.40;2073.60;;;;;;5142041;27;20361;-76
2021/08/05 02:26:43;;;;;;;13.13;7.18;;;563.50;2073.60;;;;;;5150719;27;20027;-76
2021/08/05 02:29:11;;;;;;;12.95;7.50;;;563.70;2048.00;;;;;;5154224;27;20018;-76
2021/08/05 02:31:37;;;;;;;11.05;7.70;;;563.80;2048.00;;;;;;5151307;27;20101;-76
2021/08/05 02:34:07;;;;;;;13.00;7.53;;;563.50;2048.00;;;;;;5154184;27;20129;-76
2021/08/05 02:36:33;;;;;;;9.75;7.90;;;563.40;2073.60;;;;;;5154179;27;20066;-76
2021/08/05 02:38:59;;;;;;;13.55;7.53;;;563.20;2073.60;;;;;;5154246;27;20046;-76
2021/08/05 02:41:27;;;;;;;11.50;8.23;;;563.20;2073.60;;;;;;5154077;27;20496;-76
2021/08/05 02:43:54;;;;;;;12.60;8.80;;;538.50;2099.20;;;;;;5153842;27;20035;-76
2021/08/05 02:46:20;;;;;;;14.73;8.23;;;538.50;2099.20;;;;;;5154012;27;20029;-76
2021/08/05 02:48:47;;;;;;;13.82;7.65;;;538.40;2073.60;;;;;;5135519;27;20018;-76
2021/08/05 02:51:14;;;;;;;11.07;6.78;;;538.40;2073.60;;;;;;5153985;27;20019;-77
2021/08/05 02:53:40;;;;;;;15.30;6.75;;;538.50;2048.00;;;;;;5153898;27;20023;-76
2021/08/05 02:56:09;;;;;;;10.07;6.75;;;563.20;2073.60;;;;;;5134916;27;20048;-76
2021/08/05 02:58:35;;;;;;;8.60;5.30;;;563.30;2048.00;;;;;;5135246;27;20030;-76
2021/08/05 03:01:00;;;;;;;8.50;5.28;;;563.40;2022.40;;;;;;5153945;27;20015;-76
2021/08/05 03:03:27;;;;;;;7.55;4.55;;;563.50;2022.40;;;;;;5153759;27;20022;-76
2021/08/05 03:05:54;;;;;;;10.27;5.15;;;563.60;1996.80;;;;;;5153915;27;20015;-76
2021/08/05 03:08:20;;;;;;;8.82;5.78;;;563.80;1971.20;;;;;;5143882;27;20030;-76
2021/08/05 03:10:46;;;;;;;11.35;5.50;;;563.90;1971.20;;;;;;5128091;27;20380;-76
2021/08/05 03:13:12;;;;;;;9.98;4.90;;;563.90;1971.20;;;;;;5156921;27;20499;-76
2021/08/05 03:15:37;;;;;;;7.20;4.93;;;563.80;1971.20;;;;;;5154866;27;20026;-76
2021/08/05 03:18:03;;;;;;;7.68;4.93;;;563.90;1971.20;;;;;;5157613;27;20015;-76
2021/08/05 03:20:29;;;;;;;9.00;4.78;;;563.90;1971.20;;;;;;5157655;27;20023;-76
2021/08/05 03:22:57;;;;;;;11.90;5.82;;;563.90;1971.20;;;;;;5148876;27;20045;-77
2021/08/05 03:25:23;;;;;;;10.80;5.88;;;563.80;1971.20;;;;;;5149564;27;20019;-76
2021/08/05 03:27:48;;;;;;;9.70;4.65;;;563.70;1971.20;;;;;;5138996;27;20019;-77
2021/08/05 03:30:14;;;;;;;10.02;5.57;;;563.80;1971.20;;;;;;5138855;27;20540;-76
2021/08/05 03:32:40;;;;;;;7.35;4.53;;;563.80;1971.20;;;;;;5157198;27;20064;-76
2021/08/05 03:35:06;;;;;;;7.15;4.80;;;563.70;1971.20;;;;;;5157467;27;20060;-76
2021/08/05 03:37:31;;;;;;;11.52;4.80;;;563.70;1971.20;;;;;;5157557;27;20030;-77
2021/08/05 03:39:57;;;;;;;7.78;4.28;;;563.80;1945.60;;;;;;5135143;27;20027;-76
2021/08/05 03:42:23;;;;;;;8.15;4.68;;;563.60;1971.20;;;;;;5133482;27;20034;-76
2021/08/05 03:44:50;;;;;;;12.20;5.00;;;563.70;1945.60;;;;;;5156976;27;20025;-76
2021/08/05 03:47:16;;;;;;;11.18;4.78;;;563.60;1945.60;;;;;;5157059;27;20021;-76
2021/08/05 03:49:42;;;;;;;7.20;4.60;;;563.60;1945.60;;;;;;5138537;27;20019;-75
2021/08/05 03:52:10;;;;;;;8.32;4.57;;;563.60;1945.60;;;;;;5157036;27;20464;-76
2021/08/05 03:54:46;;;;;;;7.88;4.80;;;563.60;1920.00;;;;;;5157027;27;20027;-76
2021/08/05 03:57:11;;;;;;;11.13;4.25;;;563.80;1920.00;;;;;;5156968;27;20480;-76
2021/08/05 03:59:37;;;;;;;8.85;4.35;;;563.90;1920.00;;;;;;5141087;27;20089;-75
2021/08/05 04:02:03;;;;;;;6.05;4.05;;;563.90;1920.00;;;;;;5156844;27;20371;-76
2021/08/05 04:04:29;;;;;;;7.20;4.78;;;564.10;1894.40;;;;;;5134537;27;20372;-76
2021/08/05 04:06:55;;;;;;;19.75;6.03;;;564.10;1894.40;;;;;;5145283;27;20603;-76
2021/08/05 04:09:21;;;;;;;11.32;5.55;;;564.10;1894.40;;;;;;5156882;27;20023;-75
2021/08/05 04:11:47;;;;;;;13.20;6.25;;;588.80;1868.80;;;;;;5156690;27;20487;-76
2021/08/05 04:14:13;;;;;;;9.38;5.10;;;588.90;1868.80;;;;;;5156415;27;20039;-75
2021/08/05 04:16:39;;;;;;;10.98;5.75;;;589.00;1868.80;;;;;;5153151;27;20428;-77
2021/08/05 04:19:04;;;;;;;9.98;5.80;;;589.10;1843.20;;;;;;5137074;27;20031;-76
2021/08/05 04:21:30;;;;;;;13.40;5.90;;;589.10;1868.80;;;;;;5140565;27;20019;-75
2021/08/05 04:23:56;;;;;;;11.68;6.32;;;589.10;1868.80;;;;;;5136255;27;20118;-76
2021/08/05 04:26:21;;;;;;;8.95;5.65;;;589.10;1868.80;;;;;;5150950;27;20398;-78
2021/08/05 04:28:47;;;;;;;13.80;5.53;;;589.20;1868.80;;;;;;5156327;27;20015;-79
2021/08/05 04:31:15;;;;;;;7.72;5.53;;;589.20;1868.80;;;;;;5156339;27;20476;-77
2021/08/05 04:33:41;;;;;;;10.07;5.30;;;589.20;1868.80;;;;;;5136904;27;20544;-76
2021/08/05 04:36:06;;;;;;;8.32;4.80;;;589.20;1894.40;;;;;;5156211;27;20026;-76
2021/08/05 04:38:32;;;;;;;10.07;5.25;;;589.20;1894.40;;;;;;5156162;27;20093;-77
2021/08/05 04:40:58;;;;;;;10.93;5.75;;;589.20;1894.40;;;;;;5137643;27;20070;-76
2021/08/05 04:43:23;;;;;;;10.55;5.95;;;589.30;1894.40;;;;;;5155970;27;20460;-76
2021/08/05 04:45:49;;;;;;;8.90;5.20;;;589.20;1920.00;;;;;;5155866;27;20027;-76
2021/08/05 04:48:15;;;;;;;9.25;5.47;;;589.20;1920.00;;;;;;5156259;27;20033;-75
2021/08/05 04:50:43;;;;;;;13.05;4.82;;;589.30;1894.40;;;;;;5155901;27;20409;-76
2021/08/05 04:53:10;;;;;;;8.60;4.97;;;589.40;1920.00;;;;;;5155865;27;20134;-76
2021/08/05 04:55:35;;;;;;;8.57;5.80;;;589.60;1894.40;;;;;;5155892;27;20021;-76
2021/08/05 04:58:06;;;;;;;10.98;5.00;;;589.60;1894.40;;;;;;5155763;27;20106;-76
2021/08/05 05:00:35;;;;;;;12.02;4.88;;;589.70;1894.40;;;;;;5155773;27;20027;-76
2021/08/05 05:03:01;;;;;;;13.10;5.18;;;589.70;1894.40;;;;;;5155499;27;20023;-76
2021/08/05 05:05:28;;;;;;;12.57;5.30;;;614.50;1817.60;;;;;;5155674;27;20037;-77
2021/08/05 05:07:54;;;;;;;13.30;5.72;;;614.80;1766.40;;;;;;5155645;27;20098;-77
2021/08/05 05:10:23;;;;;;;12.55;4.80;;;615.10;1715.20;;;;;;5143412;27;20064;-74
2021/08/05 05:12:49;;;;;;;12.88;5.65;;;640.00;1664.00;;;;;;5140260;27;20490;-75
2021/08/05 05:15:15;;;;;;;14.45;5.18;;;640.10;1664.00;;;;;;5139545;27;20529;-75
2021/08/05 05:17:43;;;;;;;11.15;4.72;;;640.30;1638.40;;;;;;5148073;27;20023;-75
2021/08/05 05:20:10;;;;;;;12.18;5.75;;;640.50;1612.80;;;;;;5155336;27;20038;-75
2021/08/05 05:22:37;;;;;;;9.52;4.90;;;640.60;1612.80;;;;;;5149003;27;20031;-75
2021/08/05 05:25:04;;;;;;;13.32;5.03;;;640.70;1612.80;;;;;;5140901;27;20026;-75
2021/08/05 05:27:30;;;;;;;8.18;5.07;;;640.90;1587.20;;;;;;5155563;27;20387;-75
2021/08/05 05:29:59;;;;;;;11.85;5.00;;;640.90;1612.80;;;;;;5155341;27;20029;-75
2021/08/05 05:32:26;;;;;;;9.70;5.18;;;665.60;1612.80;;;;;;5155365;27;20019;-75
2021/08/05 05:34:53;;;;;;;17.25;5.43;;;665.70;1612.80;;;;;;5153981;27;20087;-75
2021/08/05 05:37:21;;;;;;;11.93;5.38;;;665.90;1612.80;;;;;;5154979;27;20093;-76
2021/08/05 05:39:48;;;;;;;11.80;4.75;;;665.90;1612.80;;;;;;5154874;27;20041;-75
2021/08/05 05:42:13;;;;;;;12.30;5.05;;;666.00;1612.80;;;;;;5151832;27;20015;-76
2021/08/05 05:44:39;;;;;;;11.57;5.45;;;666.10;1587.20;;;;;;5154762;27;20034;-75
2021/08/05 05:47:05;;;;;;;9.68;5.13;;;666.20;1612.80;;;;;;5154644;27;20068;-74
2021/08/05 05:49:30;;;;;;;9.10;4.60;;;666.20;1612.80;;;;;;5154592;27;20123;-74
2021/08/05 05:51:57;;;;;;;15.90;5.25;;;666.20;1612.80;;;;;;5151691;27;20022;-75
2021/08/05 05:54:23;;;;;;;15.40;5.15;;;666.20;1587.20;;;;;;5154611;27;20030;-75
2021/08/05 05:56:48;;;;;;;15.23;5.05;;;666.20;1587.20;;;;;;5149280;27;20014;-75
2021/08/05 05:59:14;;;;;;;7.85;4.03;;;666.20;1612.80;;;;;;5154205;27;20464;-78
2021/08/05 06:01:40;;;;;;;12.43;4.78;;;666.20;1587.20;;;;;;5154572;27;20058;-77
2021/08/05 06:04:06;;;;;;;15.05;5.68;;;666.20;1612.80;;;;;;5154429;27;20019;-74
2021/08/05 06:06:31;;;;;;;9.25;3.67;;;666.20;1612.80;;;;;;5154483;27;20026;-77
2021/08/05 06:08:57;;;;;;;11.52;4.72;;;666.20;1587.20;;;;;;5154575;27;20015;-76
2021/08/05 06:11:26;;;;;;;11.70;5.35;;;666.30;1612.80;;;;;;5154665;27;20019;-76
2021/08/05 06:13:53;;;;;;;17.73;5.40;;;666.30;1587.20;;;;;;5154494;27;20035;-82
2021/08/05 06:16:19;;;;;;;9.48;4.80;;;666.30;1612.80;;;;;;5140509;27;20098;-76
2021/08/05 06:18:45;;;;;;;11.95;5.70;;;666.30;1612.80;;;;;;5143638;27;20027;-82
2021/08/05 06:21:11;;;;;;;19.25;5.03;;;666.40;1612.80;;;;;;5151578;27;20038;-80
2021/08/05 06:23:36;;;;;;;10.75;4.90;;;666.50;1561.60;;;;;;5154069;27;20038;-76
2021/08/05 06:26:02;;;;;;;14.75;5.47;;;691.20;1561.60;;;;;;5154422;27;20118;-75
2021/08/05 06:28:28;;;;;;;11.68;5.45;;;691.30;1561.60;;;;;;5154140;27;20049;-77
2021/08/05 06:30:54;;;;;;;13.52;5.30;;;691.30;1587.20;;;;;;5150177;27;20030;-79
2021/08/05 06:33:19;;;;;;;18.13;5.50;;;691.40;1561.60;;;;;;5149793;27;20391;-76
2021/08/05 06:35:45;;;;;;;11.63;4.70;;;691.40;1536.00;;;;;;5150233;27;20043;-76
2021/08/05 06:38:11;;;;;;;16.92;6.10;;;691.40;1536.00;;;;;;5150309;27;20015;-76
2021/08/05 06:40:36;;;;;;;16.33;5.95;;;691.50;1536.00;;;;;;5135518;27;20043;-77
2021/08/05 06:43:02;;;;;;;18.02;5.63;;;691.60;1510.40;;;;;;5138908;27;20015;-76
2021/08/05 06:45:28;;;;;;;18.80;5.05;;;691.70;1484.80;;;;;;5147498;27;20026;-76
2021/08/05 06:47:54;;;;;;;14.10;5.25;;;691.70;1484.80;;;;;;5158570;27;20342;-80
2021/08/05 06:50:19;;;;;;;24.08;5.97;;;691.80;1484.80;;;;;;5149738;27;20478;-77
2021/08/05 06:52:47;;;;;;;25.80;6.10;;;691.80;1459.20;;;;;;5154868;27;20023;-76
2021/08/05 06:55:13;;;;;;;12.90;5.18;;;691.80;1459.20;;;;;;5151581;27;20524;-76
2021/08/05 06:57:38;;;;;;;18.88;5.55;;;691.90;1459.20;;;;;;5156584;27;20023;-78
2021/08/05 07:00:05;;;;;;;15.25;6.07;;;692.00;1459.20;;;;;;5122644;27;20404;-76
2021/08/05 07:02:31;;;;;;;20.17;6.43;;;692.10;1459.20;;;;;;5155541;27;20050;-76
2021/08/05 07:05:01;;;;;;;20.00;5.75;;;692.10;1433.60;;;;;;5141430;27;20047;-76
2021/08/05 07:07:28;;;;;;;12.68;5.70;;;692.10;1433.60;;;;;;5143398;27;20038;-77
2021/08/05 07:09:54;;;;;;;12.55;5.05;;;692.10;1433.60;;;;;;5128997;27;20106;-78
2021/08/05 07:12:19;;;;;;;13.88;5.18;;;716.80;1459.20;;;;;;5158018;27;20066;-76
2021/08/05 07:14:45;;;;;;;13.05;5.82;;;716.90;1459.20;;;;;;5157397;27;20038;-76
2021/08/05 07:17:11;;;;;;;13.10;5.18;;;717.10;1433.60;;;;;;5157725;27;20431;-79
2021/08/05 07:19:37;;;;;;;21.00;5.55;;;717.20;1459.20;;;;;;5154100;27;20035;-80
2021/08/05 07:22:03;;;;;;;12.75;4.95;;;717.30;1408.00;;;;;;5147684;27;20083;-77
2021/08/05 07:24:29;;;;;;;19.73;5.63;;;717.40;1408.00;;;;;;5141274;27;20038;-77
2021/08/05 07:26:54;;;;;;;14.73;4.93;;;717.50;1408.00;;;;;;5155972;27;20019;-76
2021/08/05 07:29:20;;;;;;;19.15;5.00;;;717.60;1408.00;;;;;;5157244;27;20034;-77
2021/08/05 07:31:46;;;;;;;11.48;5.07;;;742.40;1433.60;;;;;;5157451;27;20022;-78
2021/08/05 07:34:11;;;;;;;16.90;5.55;;;742.50;1408.00;;;;;;5157190;27;20105;-76
2021/08/05 07:36:37;;;;;;;16.10;6.53;;;742.50;1382.40;;;;;;5157321;27;20475;-76
2021/08/05 07:39:05;;;;;;;13.68;5.60;;;742.60;1408.00;;;;;;5148555;27;20019;-76
2021/08/05 07:41:31;;;;;;;14.52;5.47;;;742.80;1382.40;;;;;;5140798;27;20015;-78
2021/08/05 07:43:57;;;;;;;19.50;5.88;;;742.90;1356.80;;;;;;5145362;27;20025;-79
2021/08/05 07:46:22;;;;;;;21.30;5.68;;;742.90;1356.80;;;;;;5138026;27;20026;-76
2021/08/05 07:48:48;;;;;;;17.50;5.40;;;743.00;1356.80;;;;;;5156736;27;20027;-77
2021/08/05 07:51:14;;;;;;;12.35;5.65;;;743.00;1382.40;;;;;;5157056;27;20093;-76
2021/08/05 07:53:40;;;;;;;11.85;5.82;;;743.20;1382.40;;;;;;5137945;27;20042;-79
2021/08/05 07:56:05;;;;;;;10.95;4.95;;;743.30;1382.40;;;;;;5156941;27;20041;-76
2021/08/05 07:58:31;;;;;;;16.02;5.43;;;768.00;1356.80;;;;;;5133874;27;20027;-76
2021/08/05 08:00:57;;;;;;;27.83;5.82;;;768.10;1331.20;;;;;;5156804;27;20023;-76
2021/08/05 08:03:22;;;;;;;30.40;6.38;;;768.10;1356.80;;;;;;5156828;27;20022;-78
2021/08/05 08:05:48;;;;;;;27.75;6.30;;;768.10;1356.80;;;;;;5147899;27;20058;-76
2021/08/05 08:08:16;;;;;;;12.68;5.53;;;742.90;1459.20;;;;;;5129004;27;20023;-77
2021/08/05 08:10:42;;;;;;;23.55;7.30;;;742.50;1484.80;;;;;;5156809;27;20019;-75
2021/08/05 08:13:08;;;;;;;17.60;6.55;;;742.40;1510.40;;;;;;5150050;27;20023;-77
2021/08/05 08:15:34;;;;;;;22.08;7.82;;;742.50;1510.40;;;;;;5156427;27;20388;-78
2021/08/05 08:18:00;;;;;;;25.35;5.93;;;742.50;1459.20;;;;;;5156540;27;20018;-76
2021/08/05 08:20:25;;;;;;;16.52;5.95;;;742.50;1459.20;;;;;;5137654;27;20383;-77
2021/08/05 08:22:51;;;;;;;22.75;5.93;;;742.60;1459.20;;;;;;5156446;27;20038;-74
2021/08/05 08:25:17;;;;;;;18.40;7.40;;;742.60;1510.40;;;;;;5156425;27;20019;-79
2021/08/05 08:27:43;;;;;;;15.90;6.45;;;742.60;1536.00;;;;;;5156347;27;20145;-77
2021/08/05 08:30:11;;;;;;;40.60;8.02;;;742.50;1536.00;;;;;;5140249;27;20062;-76
2021/08/05 08:32:37;;;;;;;26.58;7.05;;;742.50;1587.20;;;;;;5154558;27;20472;-77
2021/08/05 08:35:05;;;;;;;21.00;6.32;;;742.50;1536.00;;;;;;5154499;27;20075;-74
2021/08/05 08:37:31;;;;;;;25.17;6.88;;;717.70;1510.40;;;;;;5143726;27;20027;-76
2021/08/05 08:39:57;;;;;;;23.30;6.95;;;742.50;1536.00;;;;;;5146495;27;20057;-75
2021/08/05 08:42:22;;;;;;;20.38;6.65;;;742.50;1536.00;;;;;;5156174;27;20046;-77
2021/08/05 08:44:48;;;;;;;24.02;6.47;;;742.60;1561.60;;;;;;5155772;27;20463;-75
2021/08/05 08:47:15;;;;;;;17.83;5.88;;;742.60;1510.40;;;;;;5155797;27;20027;-75
2021/08/05 08:49:49;;;;;;;16.27;5.60;;;742.70;1484.80;;;;;;5156306;27;20491;-75
2021/08/05 08:52:18;;;;;;;16.20;4.60;;;742.80;1484.80;;;;;;5155077;27;20027;-77
2021/08/05 08:54:46;;;;;;;79.85;7.25;;;742.90;1510.40;;;;;;5155019;27;20027;-79
2021/08/05 08:57:16;;;;;;;9.35;3.45;;;743.00;1510.40;;;;;;5154909;27;20080;-78
2021/08/05 08:59:45;;;;;;;11.07;3.38;;;742.90;1484.80;;;;;;5155560;27;20055;-75
2021/08/05 09:02:12;;;;;;;8.10;3.42;;;742.70;1459.20;;;;;;5153998;27;20379;-76
2021/08/05 09:04:39;;;;;;;10.13;3.55;;;742.50;1484.80;;;;;;5152640;27;20011;-76
2021/08/05 09:07:05;;;;;;;11.57;3.85;;;742.40;1510.40;;;;;;5155771;27;20026;-76
2021/08/05 09:09:31;;;;;;;7.00;3.58;;;742.40;1536.00;;;;;;5143867;27;20019;-79
2021/08/05 09:11:57;;;;;;;12.65;4.07;;;717.70;1536.00;;;;;;5139131;27;20373;-78
2021/08/05 09:14:49;;;;;;;12.27;2.90;;;717.70;1536.00;;;;;;5152410;27;20038;-76
2021/08/05 09:17:31;;;;;;;8.43;2.83;;;717.60;1561.60;;;;;;5153463;27;20071;-76
2021/08/05 09:19:58;;;;;;;13.68;2.97;;;717.60;1561.60;;;;;;5155066;27;20262;-76
2021/08/05 09:22:42;;;;;;;9.52;3.30;;;717.50;1561.60;;;;;;5155248;27;20421;-76
2021/08/05 09:25:43;;;;;;;11.70;3.53;;;717.40;1587.20;;;;;;5153058;27;20071;-75
2021/08/05 09:28:14;;;;;;;5.85;2.80;;;717.30;1587.20;;;;;;5155395;27;20025;-79
2021/08/05 09:30:42;;;;;;;6.05;3.03;;;717.30;1612.80;;;;;;5155349;27;20440;-75
2021/08/05 09:33:10;;;;;;;7.03;3.13;;;717.20;1612.80;;;;;;5136263;27;20492;-79
2021/08/05 09:35:37;;;;;;;9.00;3.90;;;717.10;1638.40;;;;;;5154755;27;20061;-80
2021/08/05 09:38:25;;;;;;;7.65;3.33;;;717.10;1638.40;;;;;;5155006;27;20026;-75
2021/08/05 09:41:09;;;;;;;11.15;2.90;;;717.10;1638.40;;;;;;5145897;27;20114;-75
2021/08/05 09:43:38;;;;;;;5.57;2.50;;;716.90;1664.00;;;;;;5151971;27;20049;-79
2021/08/05 09:46:04;;;;;;;8.13;3.17;;;716.90;1638.40;;;;;;5154839;27;20011;-76
2021/08/05 09:48:42;;;;;;;8.77;3.35;;;716.80;1664.00;;;;;;5154932;27;20022;-76
2021/08/05 09:51:11;;;;;;;6.40;3.17;;;692.10;1638.40;;;;;;5141973;27;20019;-75
2021/08/05 09:53:55;;;;;;;12.98;3.15;;;692.00;1664.00;;;;;;5144051;27;20027;-75
2021/08/05 09:56:22;;;;;;;9.93;3.40;;;691.80;1740.80;;;;;;5138546;27;20102;-75
2021/08/05 09:58:48;;;;;;;7.30;3.20;;;691.50;1843.20;;;;;;5138531;27;20016;-75
2021/08/05 10:01:14;;;;;;;11.25;3.83;;;691.50;1894.40;;;;;;5154630;27;20026;-76
2021/08/05 10:03:40;;;;;;;7.90;3.50;;;666.50;1920.00;;;;;;5154404;27;20094;-76
2021/08/05 10:06:07;;;;;;;8.38;3.50;;;666.30;1945.60;;;;;;5154373;27;20490;-77
2021/08/05 10:08:41;;;;;;;8.43;3.05;;;666.00;2022.40;;;;;;5154450;27;20168;-78
2021/08/05 10:11:08;;;;;;;11.60;3.40;;;640.90;2073.60;;;;;;5154224;27;20057;-75
2021/08/05 10:13:39;;;;;;;12.95;3.53;;;640.60;2124.80;;;;;;5154210;27;20118;-75
2021/08/05 10:16:11;;;;;;;11.25;4.47;;;640.30;2150.40;;;;;;5154460;27;20809;-74
2021/08/05 10:18:38;;;;;;;6.53;4.00;;;640.10;2201.60;;;;;;5146817;27;20019;-76
2021/08/05 10:21:10;;;;;;;8.48;4.05;;;615.00;2304.00;;;;;;5146865;27;20014;-75
2021/08/05 10:23:37;;;;;;;10.23;4.43;;;614.80;2355.20;;;;;;5152050;27;20792;-74
2021/08/05 10:26:06;;;;;;;10.82;4.53;;;614.90;2304.00;;;;;;5153992;27;20109;-74
2021/08/05 10:28:33;;;;;;;9.50;4.65;;;614.90;2406.40;;;;;;5151470;27;20031;-73
2021/08/05 10:31:06;;;;;;;8.43;4.40;;;614.60;2355.20;;;;;;5154106;27;20023;-73
2021/08/05 10:33:32;;;;;;;11.30;4.43;;;614.50;2432.00;;;;;;5151408;27;20015;-72
2021/08/05 10:35:58;;;;;;;8.63;4.88;;;614.60;2432.00;;;;;;5153924;27;20098;-73
2021/08/05 10:38:24;;;;;;;12.82;4.85;;;614.70;2432.00;;;;;;5154001;27;20098;-74
2021/08/05 10:40:54;;;;;;;15.80;5.45;;;614.70;2432.00;;;;;;5134484;27;20080;-73
2021/08/05 10:43:20;;;;;;;8.25;4.72;;;614.70;2432.00;;;;;;5153872;27;20403;-75
2021/08/05 10:45:47;;;;;;;11.45;4.78;;;614.90;2432.00;;;;;;5153812;27;20052;-74
2021/08/05 10:48:14;;;;;;;9.27;4.60;;;614.90;2406.40;;;;;;5143418;27;20019;-74
2021/08/05 10:50:47;;;;;;;26.00;5.97;;;614.60;2432.00;;;;;;5138488;27;20022;-76
2021/08/05 10:53:42;;;;;;;35.67;9.20;;;614.50;2432.00;;;;;;5153982;27;20106;-74
2021/08/05 10:56:31;;;;;;;24.42;7.03;;;614.70;2432.00;;;;;;5139162;27;20070;-74
2021/08/05 10:59:15;;;;;;;17.80;6.15;;;614.60;2432.00;;;;;;5152925;27;20034;-75
2021/08/05 11:01:45;;;;;;;14.63;5.80;;;614.40;2432.00;;;;;;5144052;27;20537;-74
2021/08/05 11:04:33;;;;;;;10.75;4.10;;;589.70;2432.00;;;;;;5138703;27;20472;-74
2021/08/05 11:07:20;;;;;;;15.73;4.45;;;589.70;2252.80;;;;;;5145862;27;20019;-75
2021/08/05 11:09:46;;;;;;;14.45;4.25;;;589.30;2432.00;;;;;;5134362;27;20089;-75
2021/08/05 11:12:33;;;;;;;9.68;4.85;;;589.20;2432.00;;;;;;5134420;27;20023;-75
2021/08/05 11:14:59;;;;;;;17.13;6.57;;;564.00;2432.00;;;;;;5134232;27;20480;-76
2021/08/05 11:17:25;;;;;;;8.15;4.22;;;564.00;2432.00;;;;;;5134559;27;20031;-78
2021/08/05 11:20:14;;;;;;;6.28;3.42;;;563.60;2432.00;;;;;;5140406;27;20019;-78
2021/08/05 11:22:40;;;;;;;10.95;4.55;;;563.20;2432.00;;;;;;5120676;27;20937;-77
2021/08/05 11:25:06;;;;;;;9.45;4.47;;;538.50;2406.40;;;;;;5131707;27;20407;-79
2021/08/05 11:27:32;;;;;;;13.95;4.32;;;538.30;2406.40;;;;;;5153461;27;20019;-76
2021/08/05 11:29:58;;;;;;;7.97;3.95;;;538.20;2406.40;;;;;;5153750;27;20019;-76
2021/08/05 11:32:24;;;;;;;7.43;4.15;;;538.40;2406.40;;;;;;5154196;27;20019;-75
2021/08/05 11:34:53;;;;;;;8.75;3.92;;;538.50;2406.40;;;;;;5157455;27;20174;-79
2021/08/05 11:37:19;;;;;;;11.30;5.07;;;563.20;2432.00;;;;;;5138840;27;20421;-76
2021/08/05 11:39:53;;;;;;;12.10;4.68;;;563.50;2432.00;;;;;;5150010;27;20053;-78
2021/08/05 11:42:23;;;;;;;10.32;4.50;;;563.60;2432.00;;;;;;5155997;27;20473;-78
2021/08/05 11:44:52;;;;;;;6.07;3.90;;;563.20;2432.00;;;;;;5148847;27;20031;-78
2021/08/05 11:47:21;;;;;;;11.50;4.35;;;538.30;2406.40;;;;;;5147644;27;20093;-78
2021/08/05 11:49:58;;;;;;;10.30;3.92;;;538.30;2406.40;;;;;;5151049;27;20027;-78
2021/08/05 11:52:31;;;;;;;13.75;3.95;;;538.30;2406.40;;;;;;5154303;27;20014;-76
2021/08/05 11:55:00;;;;;;;13.25;3.95;;;538.20;2406.40;;;;;;5148164;27;20026;-76
2021/08/05 11:57:28;;;;;;;7.97;4.20;;;538.20;2406.40;;;;;;5156884;27;20030;-76
2021/08/05 11:59:56;;;;;;;10.52;3.90;;;538.30;2406.40;;;;;;5149659;27;20046;-78
2021/08/05 12:02:26;;;;;;;7.32;3.70;;;538.30;2406.40;;;;;;5134272;27;20413;-75
2021/08/05 12:04:56;;;;;;;6.57;4.10;;;538.20;2406.40;;;;;;5156560;27;20098;-75
2021/08/05 12:07:28;;;;;;;8.98;3.58;;;538.30;2406.40;;;;;;5156703;27;20037;-76
2021/08/05 12:10:00;;;;;;;6.10;3.60;;;538.20;2406.40;;;;;;5126316;27;20033;-78
2021/08/05 12:12:28;;;;;;;7.68;3.75;;;538.20;2406.40;;;;;;5156721;27;20046;-77
2021/08/05 12:14:54;;;;;;;8.23;3.95;;;538.50;2406.40;;;;;;5153744;27;20041;-77
2021/08/05 12:17:40;;;;;;;7.47;3.70;;;563.60;2432.00;;;;;;5156575;27;20023;-78